Terminal Aerodrome Forecast
Issued by NWS

Home | Current Version | Previous Version | Text Only | Print | Product List | Glossary Off
Versions: 1 2 3 4 5 6 7 8 9 10 11 12 13 14

497
FTUS43 KICT 191120
TAFRSL
TAF
KRSL 191120Z 1912/2012 VRB05KT P6SM SKC
     FM191600 14008KT P6SM SKC
     FM191900 17012G19KT P6SM SKC
     FM200500 15011KT P6SM VCTS BKN070CB=

USA.gov is the U.S. government's official web portal to all federal, state and local government web resources and services.